sensor_id;sensor_type;location;lat;lon;timestamp;pressure;altitude;pressure_sealevel;temperature;humidity
55604;BME280;41468;48.838;9.330;2023-02-12T00:01:37;100294.97;;;5.89;80.90
55604;BME280;41468;48.838;9.330;2023-02-12T00:04:03;100305.81;;;5.89;80.94
55604;BME280;41468;48.838;9.330;2023-02-12T00:06:30;100311.28;;;5.84;81.00
55604;BME280;41468;48.838;9.330;2023-02-12T00:08:57;100306.41;;;5.86;81.38
55604;BME280;41468;48.838;9.330;2023-02-12T00:11:26;100303.25;;;5.73;81.47
55604;BME280;41468;48.838;9.330;2023-02-12T00:13:53;100308.00;;;5.58;82.58
55604;BME280;41468;48.838;9.330;2023-02-12T00:16:27;100319.56;;;5.68;81.97
55604;BME280;41468;48.838;9.330;2023-02-12T00:19:00;100316.09;;;5.63;82.30
55604;BME280;41468;48.838;9.330;2023-02-12T00:21:32;100316.19;;;5.52;82.73
55604;BME280;41468;48.838;9.330;2023-02-12T00:23:58;100317.25;;;5.57;82.91
55604;BME280;41468;48.838;9.330;2023-02-12T00:26:25;100316.63;;;5.65;82.51
55604;BME280;41468;48.838;9.330;2023-02-12T00:28:52;100309.88;;;5.62;82.63
55604;BME280;41468;48.838;9.330;2023-02-12T00:31:31;100311.00;;;5.56;83.39
55604;BME280;41468;48.838;9.330;2023-02-12T00:33:59;100318.13;;;5.47;83.75
55604;BME280;41468;48.838;9.330;2023-02-12T00:36:27;100316.84;;;5.39;84.24
55604;BME280;41468;48.838;9.330;2023-02-12T00:38:55;100319.31;;;5.36;84.42
55604;BME280;41468;48.838;9.330;2023-02-12T00:41:22;100317.41;;;5.36;84.39
55604;BME280;41468;48.838;9.330;2023-02-12T00:43:50;100335.56;;;5.36;84.51
55604;BME280;41468;48.838;9.330;2023-02-12T00:46:17;100325.00;;;5.34;84.40
55604;BME280;41468;48.838;9.330;2023-02-12T00:48:44;100321.81;;;5.32;84.75
55604;BME280;41468;48.838;9.330;2023-02-12T00:51:10;100328.31;;;5.26;85.23
55604;BME280;41468;48.838;9.330;2023-02-12T00:53:37;100330.47;;;5.29;84.96
55604;BME280;41468;48.838;9.330;2023-02-12T00:56:04;100331.53;;;5.33;84.78
55604;BME280;41468;48.838;9.330;2023-02-12T00:58:31;100325.00;;;5.34;84.76
55604;BME280;41468;48.838;9.330;2023-02-12T01:00:58;100330.75;;;5.27;85.43
55604;BME280;41468;48.838;9.330;2023-02-12T01:03:31;100326.16;;;5.28;85.21
55604;BME280;41468;48.838;9.330;2023-02-12T01:05:58;100333.13;;;5.34;85.48
55604;BME280;41468;48.838;9.330;2023-02-12T01:08:24;100323.22;;;5.24;85.84
55604;BME280;41468;48.838;9.330;2023-02-12T01:10:56;100324.78;;;5.30;85.16
55604;BME280;41468;48.838;9.330;2023-02-12T01:13:24;100329.69;;;5.23;85.71
55604;BME280;41468;48.838;9.330;2023-02-12T01:18:43;100322.53;;;5.43;84.47
55604;BME280;41468;48.838;9.330;2023-02-12T01:21:13;100318.22;;;5.37;85.02
55604;BME280;41468;48.838;9.330;2023-02-12T01:23:41;100312.22;;;5.40;85.00
55604;BME280;41468;48.838;9.330;2023-02-12T01:26:09;100318.38;;;5.50;84.72
55604;BME280;41468;48.838;9.330;2023-02-12T01:28:41;100323.91;;;5.40;85.14
55604;BME280;41468;48.838;9.330;2023-02-12T01:31:13;100324.75;;;5.36;85.36
55604;BME280;41468;48.838;9.330;2023-02-12T01:33:41;100322.59;;;5.32;85.56
55604;BME280;41468;48.838;9.330;2023-02-12T01:36:09;100325.16;;;5.48;84.38
55604;BME280;41468;48.838;9.330;2023-02-12T01:38:36;100317.03;;;5.48;84.70
55604;BME280;41468;48.838;9.330;2023-02-12T01:41:09;100318.41;;;5.45;84.93
55604;BME280;41468;48.838;9.330;2023-02-12T01:43:37;100317.34;;;5.46;84.59
55604;BME280;41468;48.838;9.330;2023-02-12T01:46:05;100312.53;;;5.67;83.74
55604;BME280;41468;48.838;9.330;2023-02-12T01:48:36;100306.88;;;5.64;83.92
55604;BME280;41468;48.838;9.330;2023-02-12T01:51:06;100313.19;;;5.83;82.59
55604;BME280;41468;48.838;9.330;2023-02-12T01:53:38;100313.94;;;5.89;82.21
55604;BME280;41468;48.838;9.330;2023-02-12T01:56:07;100310.00;;;5.76;82.35
55604;BME280;41468;48.838;9.330;2023-02-12T01:58:37;100314.19;;;5.63;82.71
55604;BME280;41468;48.838;9.330;2023-02-12T02:01:07;100314.78;;;5.60;83.08
55604;BME280;41468;48.838;9.330;2023-02-12T02:03:36;100311.47;;;5.63;82.99
55604;BME280;41468;48.838;9.330;2023-02-12T02:06:18;100323.78;;;5.50;83.67
55604;BME280;41468;48.838;9.330;2023-02-12T02:08:45;100313.88;;;5.41;84.01
55604;BME280;41468;48.838;9.330;2023-02-12T02:11:12;100308.44;;;5.41;84.09
55604;BME280;41468;48.838;9.330;2023-02-12T02:13:57;100302.97;;;5.46;83.56
55604;BME280;41468;48.838;9.330;2023-02-12T02:16:48;100301.97;;;5.37;84.22
55604;BME280;41468;48.838;9.330;2023-02-12T02:20:00;100302.44;;;5.44;84.25
55604;BME280;41468;48.838;9.330;2023-02-12T02:22:43;100296.66;;;5.56;83.89
55604;BME280;41468;48.838;9.330;2023-02-12T02:25:35;100299.50;;;5.69;82.84
55604;BME280;41468;48.838;9.330;2023-02-12T02:33:44;100283.44;;;5.78;81.37
55604;BME280;41468;48.838;9.330;2023-02-12T02:36:45;100287.03;;;5.68;81.57
55604;BME280;41468;48.838;9.330;2023-02-12T02:39:37;100281.56;;;5.73;81.52
55604;BME280;41468;48.838;9.330;2023-02-12T02:42:32;100280.47;;;5.74;81.33
55604;BME280;41468;48.838;9.330;2023-02-12T02:45:11;100289.88;;;5.82;81.12
55604;BME280;41468;48.838;9.330;2023-02-12T02:47:43;100292.94;;;5.75;81.72
55604;BME280;41468;48.838;9.330;2023-02-12T02:50:14;100293.56;;;5.67;81.95
55604;BME280;41468;48.838;9.330;2023-02-12T02:52:47;100292.81;;;5.62;82.46
55604;BME280;41468;48.838;9.330;2023-02-12T02:55:31;100286.56;;;5.61;83.01
55604;BME280;41468;48.838;9.330;2023-02-12T02:58:22;100288.31;;;5.76;82.10
55604;BME280;41468;48.838;9.330;2023-02-12T03:00:53;100285.47;;;5.62;82.41
55604;BME280;41468;48.838;9.330;2023-02-12T03:03:33;100288.16;;;5.67;82.31
55604;BME280;41468;48.838;9.330;2023-02-12T03:06:10;100289.53;;;5.65;82.64
55604;BME280;41468;48.838;9.330;2023-02-12T03:08:42;100289.22;;;5.66;82.60
55604;BME280;41468;48.838;9.330;2023-02-12T03:11:22;100289.78;;;5.63;82.83
55604;BME280;41468;48.838;9.330;2023-02-12T03:14:08;100288.06;;;5.48;83.11
55604;BME280;41468;48.838;9.330;2023-02-12T03:16:44;100294.59;;;5.42;83.57
55604;BME280;41468;48.838;9.330;2023-02-12T03:19:29;100294.84;;;5.46;83.73
55604;BME280;41468;48.838;9.330;2023-02-12T03:22:01;100302.25;;;5.35;84.42
55604;BME280;41468;48.838;9.330;2023-02-12T03:24:44;100296.31;;;5.33;84.71
55604;BME280;41468;48.838;9.330;2023-02-12T03:27:22;100296.72;;;5.45;83.81
55604;BME280;41468;48.838;9.330;2023-02-12T03:29:51;100304.06;;;5.45;83.91
55604;BME280;41468;48.838;9.330;2023-02-12T03:32:32;100296.38;;;5.57;83.30
55604;BME280;41468;48.838;9.330;2023-02-12T03:35:15;100298.78;;;5.59;83.44
55604;BME280;41468;48.838;9.330;2023-02-12T03:38:12;100293.72;;;5.52;83.86
55604;BME280;41468;48.838;9.330;2023-02-12T03:41:04;100291.56;;;5.49;83.51
55604;BME280;41468;48.838;9.330;2023-02-12T03:43:53;100291.56;;;5.49;83.95
55604;BME280;41468;48.838;9.330;2023-02-12T03:46:22;100294.38;;;5.39;84.19
55604;BME280;41468;48.838;9.330;2023-02-12T03:49:09;100296.94;;;5.54;84.01
55604;BME280;41468;48.838;9.330;2023-02-12T03:51:43;100302.31;;;5.59;83.54
55604;BME280;41468;48.838;9.330;2023-02-12T03:54:12;100300.16;;;5.56;83.68
55604;BME280;41468;48.838;9.330;2023-02-12T03:56:45;100305.56;;;5.56;83.45
55604;BME280;41468;48.838;9.330;2023-02-12T03:59:18;100310.84;;;5.42;83.90
55604;BME280;41468;48.838;9.330;2023-02-12T04:01:46;100302.69;;;5.47;84.46
55604;BME280;41468;48.838;9.330;2023-02-12T04:04:14;100312.16;;;5.50;83.72
55604;BME280;41468;48.838;9.330;2023-02-12T04:06:42;100313.38;;;5.34;84.49
55604;BME280;41468;48.838;9.330;2023-02-12T04:09:10;100312.75;;;5.42;84.35
55604;BME280;41468;48.838;9.330;2023-02-12T04:14:21;100318.25;;;5.31;85.02
55604;BME280;41468;48.838;9.330;2023-02-12T04:17:00;100327.94;;;5.43;84.41
55604;BME280;41468;48.838;9.330;2023-02-12T04:22:48;100317.22;;;5.62;83.40
55604;BME280;41468;48.838;9.330;2023-02-12T04:31:03;100325.47;;;5.46;84.27
55604;BME280;41468;48.838;9.330;2023-02-12T04:33:38;100332.25;;;5.44;84.46
55604;BME280;41468;48.838;9.330;2023-02-12T04:36:16;100333.38;;;5.43;84.33
55604;BME280;41468;48.838;9.330;2023-02-12T04:38:50;100334.63;;;5.50;83.82
55604;BME280;41468;48.838;9.330;2023-02-12T04:41:19;100337.63;;;5.49;84.36
55604;BME280;41468;48.838;9.330;2023-02-12T04:43:46;100342.47;;;5.52;84.53
55604;BME280;41468;48.838;9.330;2023-02-12T04:46:12;100341.75;;;5.41;84.59
55604;BME280;41468;48.838;9.330;2023-02-12T04:48:57;100333.03;;;5.49;84.13
55604;BME280;41468;48.838;9.330;2023-02-12T04:51:24;100340.03;;;5.50;84.25
55604;BME280;41468;48.838;9.330;2023-02-12T04:53:50;100336.06;;;5.43;84.72
55604;BME280;41468;48.838;9.330;2023-02-12T04:56:17;100333.25;;;5.53;84.18
55604;BME280;41468;48.838;9.330;2023-02-12T04:58:44;100334.63;;;5.50;83.93
55604;BME280;41468;48.838;9.330;2023-02-12T05:01:16;100326.78;;;5.49;83.97
55604;BME280;41468;48.838;9.330;2023-02-12T05:03:48;100330.81;;;5.57;83.67
55604;BME280;41468;48.838;9.330;2023-02-12T05:06:14;100330.28;;;5.54;83.37
55604;BME280;41468;48.838;9.330;2023-02-12T05:08:41;100332.31;;;5.68;83.58
55604;BME280;41468;48.838;9.330;2023-02-12T05:11:10;100330.03;;;5.51;83.69
55604;BME280;41468;48.838;9.330;2023-02-12T05:13:37;100331.00;;;5.65;83.08
55604;BME280;41468;48.838;9.330;2023-02-12T05:16:05;100325.59;;;5.60;83.16
55604;BME280;41468;48.838;9.330;2023-02-12T05:18:33;100325.00;;;5.68;83.11
55604;BME280;41468;48.838;9.330;2023-02-12T05:21:02;100319.66;;;5.58;83.28
55604;BME280;41468;48.838;9.330;2023-02-12T05:23:35;100327.34;;;5.51;83.69
55604;BME280;41468;48.838;9.330;2023-02-12T05:26:04;100332.22;;;5.49;83.91
55604;BME280;41468;48.838;9.330;2023-02-12T05:28:32;100329.47;;;5.54;83.82
55604;BME280;41468;48.838;9.330;2023-02-12T05:31:00;100332.75;;;5.51;83.85
55604;BME280;41468;48.838;9.330;2023-02-12T05:33:27;100332.19;;;5.54;83.80
55604;BME280;41468;48.838;9.330;2023-02-12T05:35:54;100325.16;;;5.48;84.24
55604;BME280;41468;48.838;9.330;2023-02-12T05:38:21;100331.16;;;5.45;84.05
55604;BME280;41468;48.838;9.330;2023-02-12T05:40:48;100334.16;;;5.43;84.10
55604;BME280;41468;48.838;9.330;2023-02-12T05:43:14;100332.81;;;5.41;84.42
55604;BME280;41468;48.838;9.330;2023-02-12T05:45:41;100330.59;;;5.48;84.21
55604;BME280;41468;48.838;9.330;2023-02-12T05:48:10;100332.78;;;5.46;84.01
55604;BME280;41468;48.838;9.330;2023-02-12T05:50:36;100329.41;;;5.30;84.73
55604;BME280;41468;48.838;9.330;2023-02-12T05:53:03;100333.19;;;5.29;84.99
55604;BME280;41468;48.838;9.330;2023-02-12T05:55:30;100333.09;;;5.39;84.54
55604;BME280;41468;48.838;9.330;2023-02-12T05:57:56;100339.91;;;5.37;84.74
55604;BME280;41468;48.838;9.330;2023-02-12T06:00:23;100340.47;;;5.34;84.54
55604;BME280;41468;48.838;9.330;2023-02-12T06:02:50;100330.72;;;5.32;84.99
55604;BME280;41468;48.838;9.330;2023-02-12T06:05:17;100335.94;;;5.24;84.96
55604;BME280;41468;48.838;9.330;2023-02-12T06:07:43;100336.97;;;5.28;84.95
55604;BME280;41468;48.838;9.330;2023-02-12T06:10:16;100332.75;;;5.17;85.37
55604;BME280;41468;48.838;9.330;2023-02-12T06:12:42;100334.28;;;5.28;85.05
55604;BME280;41468;48.838;9.330;2023-02-12T06:15:09;100338.91;;;5.27;85.31
55604;BME280;41468;48.838;9.330;2023-02-12T06:17:36;100334.03;;;5.24;85.44
55604;BME280;41468;48.838;9.330;2023-02-12T06:20:02;100342.69;;;5.26;85.29
55604;BME280;41468;48.838;9.330;2023-02-12T06:22:29;100343.78;;;5.25;85.55
55604;BME280;41468;48.838;9.330;2023-02-12T06:24:56;100353.56;;;5.21;85.39
55604;BME280;41468;48.838;9.330;2023-02-12T06:27:23;100341.59;;;5.27;85.06
55604;BME280;41468;48.838;9.330;2023-02-12T06:29:49;100340.03;;;5.21;85.50
55604;BME280;41468;48.838;9.330;2023-02-12T06:32:16;100344.63;;;5.21;85.32
55604;BME280;41468;48.838;9.330;2023-02-12T06:34:43;100347.81;;;5.28;85.12
55604;BME280;41468;48.838;9.330;2023-02-12T06:37:10;100347.88;;;5.18;85.49
55604;BME280;41468;48.838;9.330;2023-02-12T06:39:37;100350.81;;;5.26;85.61
55604;BME280;41468;48.838;9.330;2023-02-12T06:42:04;100360.22;;;5.34;84.82
55604;BME280;41468;48.838;9.330;2023-02-12T06:44:30;100369.00;;;5.21;85.00
55604;BME280;41468;48.838;9.330;2023-02-12T06:46:57;100363.56;;;5.21;85.70
55604;BME280;41468;48.838;9.330;2023-02-12T06:49:24;100358.91;;;5.31;85.37
55604;BME280;41468;48.838;9.330;2023-02-12T06:51:56;100360.34;;;5.19;85.73
55604;BME280;41468;48.838;9.330;2023-02-12T06:54:22;100369.81;;;5.21;85.86
55604;BME280;41468;48.838;9.330;2023-02-12T06:56:49;100368.97;;;5.26;85.84
55604;BME280;41468;48.838;9.330;2023-02-12T06:59:16;100363.75;;;5.35;85.27
55604;BME280;41468;48.838;9.330;2023-02-12T07:01:43;100372.41;;;5.37;85.08
55604;BME280;41468;48.838;9.330;2023-02-12T07:04:10;100370.25;;;5.34;85.15
55604;BME280;41468;48.838;9.330;2023-02-12T07:06:37;100365.16;;;5.32;85.26
55604;BME280;41468;48.838;9.330;2023-02-12T07:09:04;100371.88;;;5.35;85.05
55604;BME280;41468;48.838;9.330;2023-02-12T07:11:33;100368.84;;;5.41;84.70
55604;BME280;41468;48.838;9.330;2023-02-12T07:14:03;100381.00;;;5.49;84.34
55604;BME280;41468;48.838;9.330;2023-02-12T07:16:30;100373.66;;;5.49;84.46
55604;BME280;41468;48.838;9.330;2023-02-12T07:19:01;100373.41;;;5.51;84.40
55604;BME280;41468;48.838;9.330;2023-02-12T07:21:28;100380.03;;;5.64;83.95
55604;BME280;41468;48.838;9.330;2023-02-12T07:23:55;100378.72;;;5.61;83.80
55604;BME280;41468;48.838;9.330;2023-02-12T07:26:22;100377.09;;;5.60;83.80
55604;BME280;41468;48.838;9.330;2023-02-12T07:28:50;100378.75;;;5.56;84.06
55604;BME280;41468;48.838;9.330;2023-02-12T07:31:20;100379.06;;;5.54;84.19
55604;BME280;41468;48.838;9.330;2023-02-12T07:33:47;100380.72;;;5.45;84.88
55604;BME280;41468;48.838;9.330;2023-02-12T07:36:19;100381.94;;;5.63;84.54
55604;BME280;41468;48.838;9.330;2023-02-12T07:38:46;100381.00;;;5.49;85.02
55604;BME280;41468;48.838;9.330;2023-02-12T07:41:18;100385.50;;;5.59;84.36
55604;BME280;41468;48.838;9.330;2023-02-12T07:43:47;100376.00;;;5.61;84.00
55604;BME280;41468;48.838;9.330;2023-02-12T07:46:17;100376.03;;;5.56;84.01
55604;BME280;41468;48.838;9.330;2023-02-12T07:48:45;100382.13;;;5.72;83.76
55604;BME280;41468;48.838;9.330;2023-02-12T07:51:14;100388.19;;;5.64;83.98
55604;BME280;41468;48.838;9.330;2023-02-12T07:53:41;100388.72;;;5.66;84.21
55604;BME280;41468;48.838;9.330;2023-02-12T07:56:10;100388.13;;;5.69;84.02
55604;BME280;41468;48.838;9.330;2023-02-12T07:58:38;100388.91;;;5.74;83.56
55604;BME280;41468;48.838;9.330;2023-02-12T08:03:41;100372.91;;;5.78;83.93
55604;BME280;41468;48.838;9.330;2023-02-12T08:06:14;100376.38;;;5.84;83.67
55604;BME280;41468;48.838;9.330;2023-02-12T08:08:42;100374.78;;;5.78;84.11
55604;BME280;41468;48.838;9.330;2023-02-12T08:11:14;100383.16;;;5.81;83.69
55604;BME280;41468;48.838;9.330;2023-02-12T08:13:41;100386.09;;;5.85;83.97
55604;BME280;41468;48.838;9.330;2023-02-12T08:16:11;100375.72;;;5.97;83.01
55604;BME280;41468;48.838;9.330;2023-02-12T08:18:39;100376.81;;;5.91;83.38
55604;BME280;41468;48.838;9.330;2023-02-12T08:21:19;100376.22;;;5.99;82.87
55604;BME280;41468;48.838;9.330;2023-02-12T08:23:47;100372.13;;;6.02;83.00
55604;BME280;41468;48.838;9.330;2023-02-12T08:26:41;100370.31;;;5.97;82.86
55604;BME280;41468;48.838;9.330;2023-02-12T08:29:11;100371.41;;;5.91;84.46
55604;BME280;41468;48.838;9.330;2023-02-12T08:31:44;100366.81;;;5.91;84.00
55604;BME280;41468;48.838;9.330;2023-02-12T08:36:46;100369.31;;;6.12;83.56
55604;BME280;41468;48.838;9.330;2023-02-12T08:39:13;100367.81;;;6.01;83.65
55604;BME280;41468;48.838;9.330;2023-02-12T08:41:40;100371.00;;;6.08;83.61
55604;BME280;41468;48.838;9.330;2023-02-12T08:44:11;100365.63;;;6.03;83.71
55604;BME280;41468;48.838;9.330;2023-02-12T08:46:42;100368.00;;;6.09;83.55
55604;BME280;41468;48.838;9.330;2023-02-12T08:49:19;100365.13;;;6.25;83.60
55604;BME280;41468;48.838;9.330;2023-02-12T08:51:48;100365.13;;;6.25;84.02
55604;BME280;41468;48.838;9.330;2023-02-12T08:54:18;100365.03;;;6.78;88.40
55604;BME280;41468;48.838;9.330;2023-02-12T08:56:45;100371.63;;;7.80;80.41
55604;BME280;41468;48.838;9.330;2023-02-12T08:59:14;100375.00;;;7.39;77.94
55604;BME280;41468;48.838;9.330;2023-02-12T09:01:42;100380.69;;;7.24;78.87
55604;BME280;41468;48.838;9.330;2023-02-12T09:04:18;100382.06;;;7.02;79.82
55604;BME280;41468;48.838;9.330;2023-02-12T09:06:48;100385.91;;;7.01;81.76
55604;BME280;41468;48.838;9.330;2023-02-12T09:09:15;100382.88;;;7.03;81.52
55604;BME280;41468;48.838;9.330;2023-02-12T09:11:42;100380.75;;;7.00;81.38
55604;BME280;41468;48.838;9.330;2023-02-12T09:14:15;100378.03;;;7.19;80.73
55604;BME280;41468;48.838;9.330;2023-02-12T09:16:42;100384.78;;;7.02;81.06
55604;BME280;41468;48.838;9.330;2023-02-12T09:19:11;100387.44;;;7.07;81.94
55604;BME280;41468;48.838;9.330;2023-02-12T09:21:38;100374.38;;;7.10;81.60
55604;BME280;41468;48.838;9.330;2023-02-12T09:24:05;100377.03;;;7.15;80.89
55604;BME280;41468;48.838;9.330;2023-02-12T09:26:32;100369.00;;;7.23;81.50
55604;BME280;41468;48.838;9.330;2023-02-12T09:29:01;100373.53;;;7.28;81.36
55604;BME280;41468;48.838;9.330;2023-02-12T09:31:29;100372.25;;;7.25;81.35
55604;BME280;41468;48.838;9.330;2023-02-12T09:33:59;100371.19;;;7.40;81.95
55604;BME280;41468;48.838;9.330;2023-02-12T09:36:27;100374.19;;;8.32;83.69
55604;BME280;41468;48.838;9.330;2023-02-12T09:38:54;100364.19;;;8.96;79.20
55604;BME280;41468;48.838;9.330;2023-02-12T09:41:43;100371.94;;;8.39;76.60
55604;BME280;41468;48.838;9.330;2023-02-12T09:47:35;100371.97;;;8.06;77.19
55604;BME280;41468;48.838;9.330;2023-02-12T09:50:28;100374.06;;;7.95;78.30
55604;BME280;41468;48.838;9.330;2023-02-12T09:52:55;100373.66;;;7.88;79.90
55604;BME280;41468;48.838;9.330;2023-02-12T09:55:28;100390.41;;;7.95;79.77
55604;BME280;41468;48.838;9.330;2023-02-12T09:57:55;100382.16;;;8.01;79.74
55604;BME280;41468;48.838;9.330;2023-02-12T10:00:27;100386.75;;;8.00;79.46
55604;BME280;41468;48.838;9.330;2023-02-12T10:03:00;100381.03;;;8.15;79.50
55604;BME280;41468;48.838;9.330;2023-02-12T10:05:33;100380.44;;;8.18;78.81
55604;BME280;41468;48.838;9.330;2023-02-12T10:08:49;100377.34;;;8.25;78.98
55604;BME280;41468;48.838;9.330;2023-02-12T10:11:29;100385.59;;;8.34;78.68
55604;BME280;41468;48.838;9.330;2023-02-12T10:25:12;100376.53;;;8.38;78.99
55604;BME280;41468;48.838;9.330;2023-02-12T10:27:48;100374.91;;;8.37;78.21
55604;BME280;41468;48.838;9.330;2023-02-12T10:30:19;100370.25;;;8.38;77.98
55604;BME280;41468;48.838;9.330;2023-02-12T10:32:50;100373.91;;;8.33;77.82
55604;BME280;41468;48.838;9.330;2023-02-12T10:35:20;100371.59;;;8.40;78.15
55604;BME280;41468;48.838;9.330;2023-02-12T10:40:23;100375.22;;;8.36;77.84
55604;BME280;41468;48.838;9.330;2023-02-12T10:42:53;100366.03;;;8.32;77.74
55604;BME280;41468;48.838;9.330;2023-02-12T10:45:27;100372.03;;;8.48;78.31
55604;BME280;41468;48.838;9.330;2023-02-12T10:48:03;100376.75;;;8.56;77.64
55604;BME280;41468;48.838;9.330;2023-02-12T10:53:22;100359.13;;;8.39;78.12
55604;BME280;41468;48.838;9.330;2023-02-12T10:56:05;100361.22;;;8.43;77.69
55604;BME280;41468;48.838;9.330;2023-02-12T10:58:38;100363.44;;;8.40;78.25
55604;BME280;41468;48.838;9.330;2023-02-12T11:01:16;100358.00;;;8.40;78.46
55604;BME280;41468;48.838;9.330;2023-02-12T11:03:43;100354.38;;;8.45;79.25
55604;BME280;41468;48.838;9.330;2023-02-12T11:06:18;100349.72;;;8.59;78.27
55604;BME280;41468;48.838;9.330;2023-02-12T11:08:45;100347.81;;;8.60;77.74
55604;BME280;41468;48.838;9.330;2023-02-12T11:11:19;100346.91;;;8.51;78.22
55604;BME280;41468;48.838;9.330;2023-02-12T11:13:53;100348.09;;;8.58;77.81
55604;BME280;41468;48.838;9.330;2023-02-12T11:16:36;100343.78;;;8.57;78.06
55604;BME280;41468;48.838;9.330;2023-02-12T11:19:07;100341.25;;;8.61;77.79
55604;BME280;41468;48.838;9.330;2023-02-12T11:21:43;100340.34;;;8.66;77.50
55604;BME280;41468;48.838;9.330;2023-02-12T11:27:21;100333.38;;;8.46;78.02
55604;BME280;41468;48.838;9.330;2023-02-12T11:29:45;100336.53;;;8.53;78.21
55604;BME280;41468;48.838;9.330;2023-02-12T11:32:17;100336.09;;;8.59;78.07
55604;BME280;41468;48.838;9.330;2023-02-12T11:35:32;100340.53;;;8.69;78.09
55604;BME280;41468;48.838;9.330;2023-02-12T11:37:39;100327.19;;;8.81;77.95
55604;BME280;41468;48.838;9.330;2023-02-12T11:40:14;100338.34;;;8.94;77.59
55604;BME280;41468;48.838;9.330;2023-02-12T11:42:47;100331.88;;;9.03;76.50
55604;BME280;41468;48.838;9.330;2023-02-12T11:45:17;100332.69;;;9.04;76.25
55604;BME280;41468;48.838;9.330;2023-02-12T11:47:46;100328.53;;;9.06;75.92
55604;BME280;41468;48.838;9.330;2023-02-12T11:50:21;100333.69;;;9.31;75.32
55604;BME280;41468;48.838;9.330;2023-02-12T11:52:51;100331.81;;;9.40;74.72
55604;BME280;41468;48.838;9.330;2023-02-12T11:55:31;100332.44;;;9.37;73.84
55604;BME280;41468;48.838;9.330;2023-02-12T11:58:04;100326.06;;;9.41;74.25
55604;BME280;41468;48.838;9.330;2023-02-12T12:00:45;100327.00;;;9.59;74.40
55604;BME280;41468;48.838;9.330;2023-02-12T12:03:19;100324.09;;;9.64;74.30
55604;BME280;41468;48.838;9.330;2023-02-12T12:05:50;100324.75;;;9.61;73.66
55604;BME280;41468;48.838;9.330;2023-02-12T12:08:26;100317.31;;;9.53;73.90
55604;BME280;41468;48.838;9.330;2023-02-12T12:14:02;100314.38;;;9.72;73.66
55604;BME280;41468;48.838;9.330;2023-02-12T12:22:59;100298.53;;;11.06;68.08
55604;BME280;41468;48.838;9.330;2023-02-12T12:25:50;100302.88;;;11.07;67.32
55604;BME280;41468;48.838;9.330;2023-02-12T12:28:34;100303.34;;;11.18;67.18
55604;BME280;41468;48.838;9.330;2023-02-12T12:34:09;100304.81;;;11.15;67.67
55604;BME280;41468;48.838;9.330;2023-02-12T12:39:14;100315.16;;;10.35;70.53
55604;BME280;41468;48.838;9.330;2023-02-12T12:44:34;100302.50;;;10.08;71.29
55604;BME280;41468;48.838;9.330;2023-02-12T12:47:23;100303.28;;;10.00;71.96
55604;BME280;41468;48.838;9.330;2023-02-12T12:53:14;100300.84;;;9.67;73.12
55604;BME280;41468;48.838;9.330;2023-02-12T12:56:02;100287.84;;;9.64;73.23
55604;BME280;41468;48.838;9.330;2023-02-12T12:58:54;100280.97;;;10.06;72.73
55604;BME280;41468;48.838;9.330;2023-02-12T13:01:53;100281.94;;;10.68;70.79
55604;BME280;41468;48.838;9.330;2023-02-12T13:04:28;100284.06;;;11.05;68.23
55604;BME280;41468;48.838;9.330;2023-02-12T13:09:52;100279.03;;;11.42;66.29
55604;BME280;41468;48.838;9.330;2023-02-12T13:15:32;100273.97;;;11.62;65.72
55604;BME280;41468;48.838;9.330;2023-02-12T13:18:05;100257.75;;;12.04;65.85
55604;BME280;41468;48.838;9.330;2023-02-12T13:20:44;100266.06;;;12.16;63.93
55604;BME280;41468;48.838;9.330;2023-02-12T13:25:58;100259.72;;;12.24;63.91
55604;BME280;41468;48.838;9.330;2023-02-12T13:28:49;100265.56;;;12.23;62.77
55604;BME280;41468;48.838;9.330;2023-02-12T13:31:23;100258.19;;;12.35;62.84
55604;BME280;41468;48.838;9.330;2023-02-12T13:34:03;100255.38;;;12.23;63.73
55604;BME280;41468;48.838;9.330;2023-02-12T13:36:34;100256.72;;;11.70;64.28
55604;BME280;41468;48.838;9.330;2023-02-12T13:39:27;100259.97;;;11.63;64.78
55604;BME280;41468;48.838;9.330;2023-02-12T13:44:57;100246.44;;;11.67;64.73
55604;BME280;41468;48.838;9.330;2023-02-12T13:47:40;100254.13;;;11.26;65.88
55604;BME280;41468;48.838;9.330;2023-02-12T13:53:01;100242.09;;;10.84;67.54
55604;BME280;41468;48.838;9.330;2023-02-12T13:55:40;100246.59;;;10.89;67.89
55604;BME280;41468;48.838;9.330;2023-02-12T14:01:02;100246.59;;;10.80;68.33
55604;BME280;41468;48.838;9.330;2023-02-12T14:03:30;100244.19;;;10.70;68.54
55604;BME280;41468;48.838;9.330;2023-02-12T14:06:16;100239.84;;;10.77;68.95
55604;BME280;41468;48.838;9.330;2023-02-12T14:08:48;100239.19;;;10.89;68.50
55604;BME280;41468;48.838;9.330;2023-02-12T14:11:22;100244.50;;;10.77;68.52
55604;BME280;41468;48.838;9.330;2023-02-12T14:13:53;100235.66;;;10.80;68.49
55604;BME280;41468;48.838;9.330;2023-02-12T14:22:02;100226.66;;;10.71;69.42
55604;BME280;41468;48.838;9.330;2023-02-12T14:27:06;100216.84;;;10.87;69.46
55604;BME280;41468;48.838;9.330;2023-02-12T14:40:43;100211.56;;;10.73;69.38
55604;BME280;41468;48.838;9.330;2023-02-12T14:43:30;100212.84;;;10.76;68.95
55604;BME280;41468;48.838;9.330;2023-02-12T14:49:01;100206.41;;;10.63;69.06
55604;BME280;41468;48.838;9.330;2023-02-12T14:51:42;100204.00;;;10.53;68.71
55604;BME280;41468;48.838;9.330;2023-02-12T14:54:48;100194.34;;;10.55;69.45
55604;BME280;41468;48.838;9.330;2023-02-12T14:57:12;100196.44;;;10.58;69.30
55604;BME280;41468;48.838;9.330;2023-02-12T14:59:47;100197.72;;;10.52;69.57
55604;BME280;41468;48.838;9.330;2023-02-12T15:04:52;100197.88;;;10.38;70.24
55604;BME280;41468;48.838;9.330;2023-02-12T15:07:40;100201.28;;;10.61;69.82
55604;BME280;41468;48.838;9.330;2023-02-12T15:10:15;100198.88;;;10.51;69.82
55604;BME280;41468;48.838;9.330;2023-02-12T15:15:46;100197.41;;;10.54;70.09
55604;BME280;41468;48.838;9.330;2023-02-12T15:20:55;100197.91;;;10.65;70.06
55604;BME280;41468;48.838;9.330;2023-02-12T15:23:38;100196.28;;;10.64;69.80